Terminal Aerodrome Forecast
Issued by NWS Charleston, SC

Home | Current Version | Previous Version | Text Only | Print | Product List | Glossary On
Versions: 1 2 3 4 5 6 7 8 9 10 11 12 13 14 15 16 17 18 19 20 21 22 23 24 25 26 27
000
FTUS42 KCHS 202337
TAFSAV
TAF
KSAV 202337Z 2100/2124 15008KT P6SM SCT035
     FM210500 13004KT 5SM BR SCT007 BKN015
     FM210700 12003KT 3SM BR SCT003 BKN008
      TEMPO 2108/2112 3/4SM BR OVC003
     FM211400 13004KT P6SM SCT008 BKN010
     FM211700 16010KT P6SM SCT020 BKN035=

USA.gov is the U.S. government's official web portal to all federal, state and local government web resources and services.